sensor_id;sensor_type;location;lat;lon;timestamp;P1;durP1;ratioP1;P2;durP2;ratioP2
8656;SDS011;4366;50.764;7.184;2022-11-25T00:00:38;9.00;;;2.93;;
8656;SDS011;4366;50.764;7.184;2022-11-25T00:05:39;6.57;;;2.57;;
8656;SDS011;4366;50.764;7.184;2022-11-25T00:10:41;4.50;;;2.90;;
8656;SDS011;4366;50.764;7.184;2022-11-25T00:15:42;3.40;;;2.63;;
8656;SDS011;4366;50.764;7.184;2022-11-25T00:20:44;4.50;;;2.40;;
8656;SDS011;4366;50.764;7.184;2022-11-25T00:25:45;9.53;;;2.60;;
8656;SDS011;4366;50.764;7.184;2022-11-25T00:30:47;4.33;;;2.80;;
8656;SDS011;4366;50.764;7.184;2022-11-25T00:35:49;4.53;;;2.47;;
8656;SDS011;4366;50.764;7.184;2022-11-25T00:40:53;6.13;;;2.50;;
8656;SDS011;4366;50.764;7.184;2022-11-25T00:46:14;6.63;;;2.70;;
8656;SDS011;4366;50.764;7.184;2022-11-25T00:51:15;9.50;;;2.90;;
8656;SDS011;4366;50.764;7.184;2022-11-25T00:56:17;7.27;;;3.00;;
8656;SDS011;4366;50.764;7.184;2022-11-25T01:01:19;5.23;;;3.07;;
8656;SDS011;4366;50.764;7.184;2022-11-25T01:06:21;4.47;;;3.10;;
8656;SDS011;4366;50.764;7.184;2022-11-25T01:11:23;10.17;;;3.60;;
8656;SDS011;4366;50.764;7.184;2022-11-25T01:16:24;10.03;;;3.20;;
8656;SDS011;4366;50.764;7.184;2022-11-25T01:21:28;6.27;;;3.17;;
8656;SDS011;4366;50.764;7.184;2022-11-25T01:26:31;7.47;;;2.97;;
8656;SDS011;4366;50.764;7.184;2022-11-25T01:31:34;4.57;;;3.03;;
8656;SDS011;4366;50.764;7.184;2022-11-25T01:36:36;5.87;;;2.87;;
8656;SDS011;4366;50.764;7.184;2022-11-25T01:41:38;7.27;;;2.67;;
8656;SDS011;4366;50.764;7.184;2022-11-25T01:57:15;5.77;;;2.77;;
8656;SDS011;4366;50.764;7.184;2022-11-25T02:02:20;4.53;;;2.40;;
8656;SDS011;4366;50.764;7.184;2022-11-25T02:07:27;8.17;;;2.73;;
8656;SDS011;4366;50.764;7.184;2022-11-25T02:12:35;4.90;;;2.40;;
8656;SDS011;4366;50.764;7.184;2022-11-25T02:17:38;6.50;;;2.30;;
8656;SDS011;4366;50.764;7.184;2022-11-25T02:27:56;7.93;;;2.00;;
8656;SDS011;4366;50.764;7.184;2022-11-25T02:33:01;5.10;;;2.20;;
8656;SDS011;4366;50.764;7.184;2022-11-25T02:43:10;9.00;;;2.10;;
8656;SDS011;4366;50.764;7.184;2022-11-25T02:48:12;6.23;;;2.50;;
8656;SDS011;4366;50.764;7.184;2022-11-25T02:53:14;6.10;;;2.07;;
8656;SDS011;4366;50.764;7.184;2022-11-25T02:58:17;4.20;;;2.07;;
8656;SDS011;4366;50.764;7.184;2022-11-25T03:03:18;4.60;;;2.40;;
8656;SDS011;4366;50.764;7.184;2022-11-25T03:08:20;4.17;;;2.03;;
8656;SDS011;4366;50.764;7.184;2022-11-25T03:13:22;3.93;;;1.90;;
8656;SDS011;4366;50.764;7.184;2022-11-25T03:18:24;5.43;;;2.20;;
8656;SDS011;4366;50.764;7.184;2022-11-25T03:23:26;5.40;;;2.00;;
8656;SDS011;4366;50.764;7.184;2022-11-25T03:28:27;6.87;;;2.20;;
8656;SDS011;4366;50.764;7.184;2022-11-25T03:33:30;7.07;;;2.00;;
8656;SDS011;4366;50.764;7.184;2022-11-25T03:38:32;8.43;;;2.77;;
8656;SDS011;4366;50.764;7.184;2022-11-25T03:43:34;7.80;;;2.20;;
8656;SDS011;4366;50.764;7.184;2022-11-25T03:48:36;6.53;;;2.40;;
8656;SDS011;4366;50.764;7.184;2022-11-25T03:53:38;4.33;;;2.13;;
8656;SDS011;4366;50.764;7.184;2022-11-25T03:58:42;4.93;;;2.00;;
8656;SDS011;4366;50.764;7.184;2022-11-25T04:03:44;2.23;;;1.63;;
8656;SDS011;4366;50.764;7.184;2022-11-25T04:08:46;4.73;;;2.13;;
8656;SDS011;4366;50.764;7.184;2022-11-25T04:13:48;3.83;;;1.80;;
8656;SDS011;4366;50.764;7.184;2022-11-25T04:18:51;7.27;;;1.97;;
8656;SDS011;4366;50.764;7.184;2022-11-25T04:23:52;4.13;;;2.10;;
8656;SDS011;4366;50.764;7.184;2022-11-25T04:28:54;5.20;;;1.90;;
8656;SDS011;4366;50.764;7.184;2022-11-25T04:33:57;5.10;;;2.00;;
8656;SDS011;4366;50.764;7.184;2022-11-25T04:38:59;5.23;;;2.00;;
8656;SDS011;4366;50.764;7.184;2022-11-25T04:44:00;4.17;;;2.00;;
8656;SDS011;4366;50.764;7.184;2022-11-25T04:49:03;6.70;;;2.20;;
8656;SDS011;4366;50.764;7.184;2022-11-25T04:54:05;3.83;;;2.10;;
8656;SDS011;4366;50.764;7.184;2022-11-25T04:59:09;3.13;;;2.37;;
8656;SDS011;4366;50.764;7.184;2022-11-25T05:04:29;5.37;;;2.80;;
8656;SDS011;4366;50.764;7.184;2022-11-25T05:09:31;5.00;;;2.43;;
8656;SDS011;4366;50.764;7.184;2022-11-25T05:14:56;5.93;;;2.37;;
8656;SDS011;4366;50.764;7.184;2022-11-25T05:19:59;3.97;;;2.63;;
8656;SDS011;4366;50.764;7.184;2022-11-25T05:25:03;5.00;;;2.33;;
8656;SDS011;4366;50.764;7.184;2022-11-25T05:30:10;5.53;;;2.93;;
8656;SDS011;4366;50.764;7.184;2022-11-25T05:35:12;4.00;;;2.17;;
8656;SDS011;4366;50.764;7.184;2022-11-25T05:40:14;3.53;;;2.33;;
8656;SDS011;4366;50.764;7.184;2022-11-25T05:45:36;4.27;;;2.83;;
8656;SDS011;4366;50.764;7.184;2022-11-25T05:50:41;3.43;;;2.93;;
8656;SDS011;4366;50.764;7.184;2022-11-25T05:55:57;4.20;;;2.50;;
8656;SDS011;4366;50.764;7.184;2022-11-25T06:01:18;4.87;;;2.70;;
8656;SDS011;4366;50.764;7.184;2022-11-25T06:06:21;2.83;;;2.57;;
8656;SDS011;4366;50.764;7.184;2022-11-25T06:11:23;4.30;;;2.40;;
8656;SDS011;4366;50.764;7.184;2022-11-25T06:16:26;5.17;;;2.83;;
8656;SDS011;4366;50.764;7.184;2022-11-25T06:21:43;4.53;;;2.80;;
8656;SDS011;4366;50.764;7.184;2022-11-25T06:26:46;4.33;;;3.23;;
8656;SDS011;4366;50.764;7.184;2022-11-25T06:31:48;4.93;;;3.03;;
8656;SDS011;4366;50.764;7.184;2022-11-25T06:37:07;6.23;;;2.93;;
8656;SDS011;4366;50.764;7.184;2022-11-25T06:42:09;6.00;;;3.27;;
8656;SDS011;4366;50.764;7.184;2022-11-25T06:47:11;5.10;;;2.80;;
8656;SDS011;4366;50.764;7.184;2022-11-25T06:52:13;5.13;;;2.77;;
8656;SDS011;4366;50.764;7.184;2022-11-25T06:57:15;6.93;;;3.07;;
8656;SDS011;4366;50.764;7.184;2022-11-25T07:02:18;5.60;;;2.70;;
8656;SDS011;4366;50.764;7.184;2022-11-25T07:07:19;8.43;;;3.00;;
8656;SDS011;4366;50.764;7.184;2022-11-25T07:12:21;7.40;;;3.27;;
8656;SDS011;4366;50.764;7.184;2022-11-25T07:17:23;4.63;;;3.00;;
8656;SDS011;4366;50.764;7.184;2022-11-25T07:22:25;4.67;;;2.50;;
8656;SDS011;4366;50.764;7.184;2022-11-25T07:27:26;5.80;;;2.70;;
8656;SDS011;4366;50.764;7.184;2022-11-25T07:32:28;9.07;;;2.80;;
8656;SDS011;4366;50.764;7.184;2022-11-25T07:37:33;6.97;;;3.33;;
8656;SDS011;4366;50.764;7.184;2022-11-25T07:42:35;3.63;;;2.73;;
8656;SDS011;4366;50.764;7.184;2022-11-25T07:47:37;4.53;;;2.30;;
8656;SDS011;4366;50.764;7.184;2022-11-25T07:52:39;3.70;;;2.73;;
8656;SDS011;4366;50.764;7.184;2022-11-25T07:57:42;3.50;;;2.90;;
8656;SDS011;4366;50.764;7.184;2022-11-25T08:02:44;5.57;;;3.13;;
8656;SDS011;4366;50.764;7.184;2022-11-25T08:07:46;6.40;;;3.30;;
8656;SDS011;4366;50.764;7.184;2022-11-25T08:12:47;4.87;;;2.93;;
8656;SDS011;4366;50.764;7.184;2022-11-25T08:17:49;3.13;;;2.80;;
8656;SDS011;4366;50.764;7.184;2022-11-25T08:22:53;5.53;;;2.93;;
8656;SDS011;4366;50.764;7.184;2022-11-25T08:27:54;5.57;;;4.03;;
8656;SDS011;4366;50.764;7.184;2022-11-25T08:32:56;5.57;;;3.30;;
8656;SDS011;4366;50.764;7.184;2022-11-25T08:37:59;5.57;;;3.40;;
8656;SDS011;4366;50.764;7.184;2022-11-25T08:43:01;4.50;;;3.30;;
8656;SDS011;4366;50.764;7.184;2022-11-25T08:48:03;4.57;;;3.27;;
8656;SDS011;4366;50.764;7.184;2022-11-25T08:53:05;4.40;;;3.20;;
8656;SDS011;4366;50.764;7.184;2022-11-25T08:58:06;7.53;;;3.50;;
8656;SDS011;4366;50.764;7.184;2022-11-25T09:03:11;5.63;;;2.60;;
8656;SDS011;4366;50.764;7.184;2022-11-25T09:08:13;4.27;;;2.57;;
8656;SDS011;4366;50.764;7.184;2022-11-25T09:13:14;4.10;;;2.73;;
8656;SDS011;4366;50.764;7.184;2022-11-25T09:18:16;3.57;;;2.57;;
8656;SDS011;4366;50.764;7.184;2022-11-25T09:23:20;3.63;;;2.07;;
8656;SDS011;4366;50.764;7.184;2022-11-25T09:28:24;2.37;;;1.90;;
8656;SDS011;4366;50.764;7.184;2022-11-25T09:33:26;4.33;;;2.30;;
8656;SDS011;4366;50.764;7.184;2022-11-25T09:38:28;3.40;;;2.43;;
8656;SDS011;4366;50.764;7.184;2022-11-25T09:54:23;3.93;;;2.17;;
8656;SDS011;4366;50.764;7.184;2022-11-25T09:59:38;2.77;;;1.93;;
8656;SDS011;4366;50.764;7.184;2022-11-25T10:04:51;1.97;;;1.70;;
8656;SDS011;4366;50.764;7.184;2022-11-25T10:09:59;3.50;;;2.00;;
8656;SDS011;4366;50.764;7.184;2022-11-25T10:15:03;3.47;;;2.17;;
8656;SDS011;4366;50.764;7.184;2022-11-25T10:20:12;3.00;;;1.90;;
8656;SDS011;4366;50.764;7.184;2022-11-25T10:25:19;5.90;;;2.57;;
8656;SDS011;4366;50.764;7.184;2022-11-25T10:30:28;2.67;;;1.67;;
8656;SDS011;4366;50.764;7.184;2022-11-25T10:35:38;3.27;;;1.90;;
8656;SDS011;4366;50.764;7.184;2022-11-25T10:40:46;3.00;;;2.00;;
8656;SDS011;4366;50.764;7.184;2022-11-25T10:46:13;4.90;;;1.70;;
8656;SDS011;4366;50.764;7.184;2022-11-25T10:51:44;5.80;;;1.70;;
8656;SDS011;4366;50.764;7.184;2022-11-25T11:02:18;4.20;;;2.10;;
8656;SDS011;4366;50.764;7.184;2022-11-25T11:07:25;4.63;;;1.80;;
8656;SDS011;4366;50.764;7.184;2022-11-25T11:12:28;4.83;;;1.70;;
8656;SDS011;4366;50.764;7.184;2022-11-25T11:17:32;4.10;;;1.57;;
8656;SDS011;4366;50.764;7.184;2022-11-25T11:22:44;3.43;;;1.83;;
8656;SDS011;4366;50.764;7.184;2022-11-25T11:27:47;3.63;;;1.50;;
8656;SDS011;4366;50.764;7.184;2022-11-25T11:32:56;3.13;;;1.30;;
8656;SDS011;4366;50.764;7.184;2022-11-25T11:38:13;4.83;;;1.50;;
8656;SDS011;4366;50.764;7.184;2022-11-25T11:54:33;5.10;;;1.50;;
8656;SDS011;4366;50.764;7.184;2022-11-25T11:59:47;5.67;;;1.30;;
8656;SDS011;4366;50.764;7.184;2022-11-25T12:15:23;3.10;;;1.33;;
8656;SDS011;4366;50.764;7.184;2022-11-25T12:20:51;4.73;;;1.57;;
8656;SDS011;4366;50.764;7.184;2022-11-25T12:26:00;5.07;;;1.60;;
8656;SDS011;4366;50.764;7.184;2022-11-25T12:31:20;4.33;;;1.90;;
8656;SDS011;4366;50.764;7.184;2022-11-25T12:36:35;6.27;;;2.03;;
8656;SDS011;4366;50.764;7.184;2022-11-25T12:41:40;8.20;;;1.77;;
8656;SDS011;4366;50.764;7.184;2022-11-25T12:46:44;5.10;;;1.60;;
8656;SDS011;4366;50.764;7.184;2022-11-25T12:57:27;5.20;;;1.80;;
8656;SDS011;4366;50.764;7.184;2022-11-25T13:08:22;3.40;;;1.50;;
8656;SDS011;4366;50.764;7.184;2022-11-25T13:19:23;3.93;;;1.53;;
8656;SDS011;4366;50.764;7.184;2022-11-25T13:24:26;5.23;;;1.70;;
8656;SDS011;4366;50.764;7.184;2022-11-25T13:29:51;2.80;;;1.20;;
8656;SDS011;4366;50.764;7.184;2022-11-25T13:45:31;3.53;;;1.57;;
8656;SDS011;4366;50.764;7.184;2022-11-25T13:50:34;6.73;;;2.30;;
8656;SDS011;4366;50.764;7.184;2022-11-25T13:56:20;3.87;;;1.43;;
8656;SDS011;4366;50.764;7.184;2022-11-25T14:01:26;6.57;;;1.83;;
8656;SDS011;4366;50.764;7.184;2022-11-25T14:33:35;10.07;;;2.00;;
8656;SDS011;4366;50.764;7.184;2022-11-25T14:38:45;3.40;;;1.70;;
8656;SDS011;4366;50.764;7.184;2022-11-25T14:43:52;2.67;;;1.50;;
8656;SDS011;4366;50.764;7.184;2022-11-25T14:48:56;4.30;;;1.50;;
8656;SDS011;4366;50.764;7.184;2022-11-25T14:53:59;4.23;;;1.60;;
8656;SDS011;4366;50.764;7.184;2022-11-25T14:59:01;2.93;;;1.30;;
8656;SDS011;4366;50.764;7.184;2022-11-25T15:14:33;9.30;;;2.10;;
8656;SDS011;4366;50.764;7.184;2022-11-25T15:19:36;4.70;;;1.90;;
8656;SDS011;4366;50.764;7.184;2022-11-25T15:24:40;6.93;;;1.90;;
8656;SDS011;4366;50.764;7.184;2022-11-25T15:29:43;5.17;;;1.83;;
8656;SDS011;4366;50.764;7.184;2022-11-25T15:34:46;6.37;;;2.80;;
8656;SDS011;4366;50.764;7.184;2022-11-25T15:39:49;7.97;;;2.50;;
8656;SDS011;4366;50.764;7.184;2022-11-25T15:44:58;2.83;;;2.23;;
8656;SDS011;4366;50.764;7.184;2022-11-25T15:50:21;5.63;;;2.17;;
8656;SDS011;4366;50.764;7.184;2022-11-25T15:55:29;7.17;;;2.57;;
8656;SDS011;4366;50.764;7.184;2022-11-25T16:00:32;5.47;;;1.90;;
8656;SDS011;4366;50.764;7.184;2022-11-25T16:05:36;3.60;;;1.70;;
8656;SDS011;4366;50.764;7.184;2022-11-25T16:15:47;3.80;;;1.83;;
8656;SDS011;4366;50.764;7.184;2022-11-25T16:20:54;2.83;;;1.57;;
8656;SDS011;4366;50.764;7.184;2022-11-25T16:26:05;4.80;;;1.80;;
8656;SDS011;4366;50.764;7.184;2022-11-25T16:31:14;4.20;;;2.00;;
8656;SDS011;4366;50.764;7.184;2022-11-25T16:36:17;4.37;;;1.80;;
8656;SDS011;4366;50.764;7.184;2022-11-25T16:41:20;4.43;;;1.97;;
8656;SDS011;4366;50.764;7.184;2022-11-25T16:46:24;5.97;;;2.27;;
8656;SDS011;4366;50.764;7.184;2022-11-25T16:51:25;4.90;;;2.10;;
8656;SDS011;4366;50.764;7.184;2022-11-25T16:56:27;4.67;;;2.50;;
8656;SDS011;4366;50.764;7.184;2022-11-25T17:01:29;7.03;;;2.47;;
8656;SDS011;4366;50.764;7.184;2022-11-25T17:06:31;6.03;;;2.10;;
8656;SDS011;4366;50.764;7.184;2022-11-25T17:11:34;3.20;;;2.20;;
8656;SDS011;4366;50.764;7.184;2022-11-25T17:16:46;5.77;;;2.83;;
8656;SDS011;4366;50.764;7.184;2022-11-25T17:21:48;6.50;;;2.90;;
8656;SDS011;4366;50.764;7.184;2022-11-25T17:26:52;5.17;;;2.90;;
8656;SDS011;4366;50.764;7.184;2022-11-25T17:31:56;4.40;;;2.60;;
8656;SDS011;4366;50.764;7.184;2022-11-25T17:36:59;4.00;;;2.70;;
8656;SDS011;4366;50.764;7.184;2022-11-25T17:42:00;7.60;;;2.87;;
8656;SDS011;4366;50.764;7.184;2022-11-25T17:47:04;8.20;;;2.83;;
8656;SDS011;4366;50.764;7.184;2022-11-25T17:52:11;5.27;;;3.07;;
8656;SDS011;4366;50.764;7.184;2022-11-25T17:57:14;6.27;;;2.93;;
8656;SDS011;4366;50.764;7.184;2022-11-25T18:02:18;8.13;;;2.87;;
8656;SDS011;4366;50.764;7.184;2022-11-25T18:07:21;8.03;;;3.13;;
8656;SDS011;4366;50.764;7.184;2022-11-25T18:12:27;10.07;;;3.07;;
8656;SDS011;4366;50.764;7.184;2022-11-25T18:17:31;6.67;;;3.00;;
8656;SDS011;4366;50.764;7.184;2022-11-25T18:22:32;6.40;;;2.70;;
8656;SDS011;4366;50.764;7.184;2022-11-25T18:27:34;7.43;;;3.03;;
8656;SDS011;4366;50.764;7.184;2022-11-25T18:32:36;6.43;;;3.13;;
8656;SDS011;4366;50.764;7.184;2022-11-25T18:37:38;9.70;;;3.40;;
8656;SDS011;4366;50.764;7.184;2022-11-25T18:42:40;8.07;;;4.03;;
8656;SDS011;4366;50.764;7.184;2022-11-25T18:47:43;9.60;;;3.33;;
8656;SDS011;4366;50.764;7.184;2022-11-25T18:52:44;5.47;;;2.93;;
8656;SDS011;4366;50.764;7.184;2022-11-25T18:57:49;7.93;;;2.93;;
8656;SDS011;4366;50.764;7.184;2022-11-25T19:02:52;9.07;;;3.30;;
8656;SDS011;4366;50.764;7.184;2022-11-25T19:07:53;8.17;;;3.23;;
8656;SDS011;4366;50.764;7.184;2022-11-25T19:13:00;10.93;;;3.97;;
8656;SDS011;4366;50.764;7.184;2022-11-25T19:18:03;10.93;;;3.70;;
8656;SDS011;4366;50.764;7.184;2022-11-25T19:23:12;4.23;;;3.37;;
8656;SDS011;4366;50.764;7.184;2022-11-25T19:28:17;8.47;;;3.60;;
8656;SDS011;4366;50.764;7.184;2022-11-25T19:33:23;6.43;;;3.33;;
8656;SDS011;4366;50.764;7.184;2022-11-25T19:38:27;6.13;;;3.20;;
8656;SDS011;4366;50.764;7.184;2022-11-25T19:43:30;5.47;;;2.80;;
8656;SDS011;4366;50.764;7.184;2022-11-25T19:48:33;6.40;;;2.70;;
8656;SDS011;4366;50.764;7.184;2022-11-25T19:53:36;7.50;;;3.43;;
8656;SDS011;4366;50.764;7.184;2022-11-25T19:58:37;6.03;;;3.10;;
8656;SDS011;4366;50.764;7.184;2022-11-25T20:03:39;5.77;;;3.10;;
8656;SDS011;4366;50.764;7.184;2022-11-25T20:08:48;9.20;;;3.83;;
8656;SDS011;4366;50.764;7.184;2022-11-25T20:13:51;7.47;;;3.77;;
8656;SDS011;4366;50.764;7.184;2022-11-25T20:18:53;10.60;;;3.80;;
8656;SDS011;4366;50.764;7.184;2022-11-25T20:23:54;12.83;;;5.30;;
8656;SDS011;4366;50.764;7.184;2022-11-25T20:28:56;12.07;;;4.90;;
8656;SDS011;4366;50.764;7.184;2022-11-25T20:33:58;11.23;;;5.83;;
8656;SDS011;4366;50.764;7.184;2022-11-25T20:39:00;16.07;;;8.23;;
8656;SDS011;4366;50.764;7.184;2022-11-25T20:44:02;12.83;;;7.53;;
8656;SDS011;4366;50.764;7.184;2022-11-25T20:49:12;12.90;;;7.53;;
8656;SDS011;4366;50.764;7.184;2022-11-25T20:54:20;14.20;;;7.97;;
8656;SDS011;4366;50.764;7.184;2022-11-25T20:59:24;14.37;;;7.67;;
8656;SDS011;4366;50.764;7.184;2022-11-25T21:04:25;9.13;;;6.40;;
8656;SDS011;4366;50.764;7.184;2022-11-25T21:09:29;11.23;;;5.83;;
8656;SDS011;4366;50.764;7.184;2022-11-25T21:14:33;12.67;;;6.63;;
8656;SDS011;4366;50.764;7.184;2022-11-25T21:19:35;7.90;;;5.80;;
8656;SDS011;4366;50.764;7.184;2022-11-25T21:24:37;14.87;;;8.50;;
8656;SDS011;4366;50.764;7.184;2022-11-25T21:29:41;13.80;;;7.43;;
8656;SDS011;4366;50.764;7.184;2022-11-25T21:34:44;14.97;;;7.27;;
8656;SDS011;4366;50.764;7.184;2022-11-25T21:39:45;7.97;;;5.30;;
8656;SDS011;4366;50.764;7.184;2022-11-25T21:44:47;13.50;;;6.40;;
8656;SDS011;4366;50.764;7.184;2022-11-25T21:49:50;10.40;;;5.40;;
8656;SDS011;4366;50.764;7.184;2022-11-25T21:54:52;10.30;;;4.83;;
8656;SDS011;4366;50.764;7.184;2022-11-25T21:59:53;5.90;;;4.33;;
8656;SDS011;4366;50.764;7.184;2022-11-25T22:04:56;6.07;;;4.27;;
8656;SDS011;4366;50.764;7.184;2022-11-25T22:09:58;8.57;;;4.67;;
8656;SDS011;4366;50.764;7.184;2022-11-25T22:15:00;6.80;;;4.20;;
8656;SDS011;4366;50.764;7.184;2022-11-25T22:20:02;11.67;;;4.63;;
8656;SDS011;4366;50.764;7.184;2022-11-25T22:25:05;6.30;;;4.30;;
8656;SDS011;4366;50.764;7.184;2022-11-25T22:30:10;8.47;;;4.57;;
8656;SDS011;4366;50.764;7.184;2022-11-25T22:35:18;14.63;;;6.83;;
8656;SDS011;4366;50.764;7.184;2022-11-25T22:40:20;8.73;;;5.63;;
8656;SDS011;4366;50.764;7.184;2022-11-25T22:45:27;13.33;;;5.80;;
8656;SDS011;4366;50.764;7.184;2022-11-25T22:50:32;11.40;;;6.10;;
8656;SDS011;4366;50.764;7.184;2022-11-25T22:55:34;10.00;;;5.10;;
8656;SDS011;4366;50.764;7.184;2022-11-25T23:00:38;7.37;;;4.90;;
8656;SDS011;4366;50.764;7.184;2022-11-25T23:05:45;10.03;;;5.47;;
8656;SDS011;4366;50.764;7.184;2022-11-25T23:10:47;8.27;;;5.27;;
8656;SDS011;4366;50.764;7.184;2022-11-25T23:15:50;8.77;;;4.57;;
8656;SDS011;4366;50.764;7.184;2022-11-25T23:20:57;11.50;;;5.33;;
8656;SDS011;4366;50.764;7.184;2022-11-25T23:25:58;6.90;;;4.63;;
8656;SDS011;4366;50.764;7.184;2022-11-25T23:31:00;9.90;;;5.50;;
8656;SDS011;4366;50.764;7.184;2022-11-25T23:36:04;9.63;;;5.23;;
8656;SDS011;4366;50.764;7.184;2022-11-25T23:41:15;9.60;;;5.33;;
8656;SDS011;4366;50.764;7.184;2022-11-25T23:46:22;8.13;;;4.67;;
8656;SDS011;4366;50.764;7.184;2022-11-25T23:51:25;9.87;;;5.57;;
8656;SDS011;4366;50.764;7.184;2022-11-25T23:56:27;8.23;;;5.37;;
